This is the latest recevied weather packets stored in our database for station/object W1RCY. If no packets are shown the sender has not sent any weather packets the latest 10 day(s).
| Time | Temp. | Humidity | Pressure | Rain* | Wind** | Luminosity | Snow |
|---|---|---|---|---|---|---|---|
| 1778009993 | 27.22° C | 36% | 1002.3 hPa | 0 mm | - | 165 W/m² | - |
| 1778009690 | 27.22° C | 36% | 1002.3 hPa | 0 mm | - | 573 W/m² | - |
| 1778009388 | 26.67° C | 36% | 1002.7 hPa | 0 mm | - | 627 W/m² | - |
| 1778009086 | 26.67° C | 37% | 1002.6 hPa | 0 mm | - | 277 W/m² | - |
| 1778008783 | 27.22° C | 37% | 1002.6 hPa | 0 mm | - | 166 W/m² | - |
| 1778008482 | 27.22° C | 38% | 1003 hPa | 0 mm | - | 664 W/m² | - |
| 1778008178 | 27.78° C | 37% | 1002.8 hPa | 0 mm | - | 155 W/m² | - |
| 1778007873 | 27.22° C | 37% | 1003.1 hPa | 0 mm | - | 660 W/m² | - |
| 1778007569 | 26.67° C | 38% | 1003.2 hPa | 0 mm | - | 768 W/m² | - |
| 1778007267 | 27.22° C | 37% | 1003.4 hPa | 0 mm | - | 223 W/m² | - |
| 1778006963 | 27.22° C | 36% | 1003.5 hPa | 0 mm | - | 505 W/m² | - |
| 1778006660 | 27.22° C | 36% | 1003.5 hPa | 0 mm | - | 412 W/m² | - |
| 1778006357 | 26.67° C | 37% | 1003.5 hPa | 0 mm | - | 258 W/m² | - |
| 1778006054 | 26.67° C | 38% | 1003.6 hPa | 0 mm | - | 241 W/m² | - |
| 1778005750 | 26.67° C | 39% | 1003.8 hPa | 0 mm | - | 656 W/m² | - |
| 1778005447 | 26.67° C | 39% | 1003.7 hPa | 0 mm | - | 219 W/m² | - |
| 1778005143 | 26.11° C | 40% | 1003.7 hPa | 0 mm | - | 252 W/m² | - |
| 1778004841 | 27.22° C | 39% | 1003.9 hPa | 0 mm | - | 751 W/m² | - |
| 1778004537 | 27.22° C | 38% | 1004 hPa | 0 mm | - | 189 W/m² | - |
| 1778004234 | 26.67° C | 39% | 1004 hPa | 0 mm | - | 742 W/m² | - |
| 1778003930 | 26.67° C | 40% | 1003.8 hPa | 0 mm | - | 301 W/m² | - |
| 1778003627 | 26.67° C | 40% | 1004 hPa | 0 mm | - | 565 W/m² | - |
| 1778003323 | 26.11° C | 42% | 1004 hPa | 0 mm | - | 428 W/m² | - |
| 1778003021 | 25.56° C | 46% | 1004.3 hPa | 0 mm | - | 274 W/m² | - |
| 1778002717 | 26.11° C | 43% | 1004.2 hPa | 0 mm | - | 294 W/m² | - |
* Rain latest hour (hover to see other rain measurements)
** Current wind speed in m/s (hover to see current wind gust speed)